Waterville, Vermont
Current Conditions -  °F | °C
As of 2:31 AM on Thursday 18 Dec 2014 (Local Time) from KMVL Reporting Station
Light Snow Light Snow  
Wind Chill: 27°   Ceiling: 3500
Heat Index: 33°   Visibility: 4mi
Dew Point: 31°   Wind: 7mph
Humidity: 92%   Direction: 360°N
Pressure: 29.73"   Gusts: NA
Location:  44.69°N, 72.77°W
Report Text: KMVL 180731Z AUTO 36006KT 4SM -SN BR FEW006 SCT028 OVC035 01/M01 A2973 RMK AO2 P0000 T00061006 TSNO
Loading
Personal Weather Stations






























Interactive Weather Map New forecast layout! Learn more

10-Day Weather Forecast

Advertisements
Track Severe Weather on mobile